Port Angeles, WA

8:02 PM PDT on August 28, 2014 (GMT -0700)
4 miles up Deer Park Road | Change Station
CLOSE
Current Station
Personal Weather Station
Location: Port Angeles, WA
Elevation: 850 ft
Nearby Weather Stations

Elev 850 ft 48.05 °N, 123.34 °W | Updated 5 seconds ago

Partly Cloudy
Partly Cloudy
67.3 °F
Feels Like 67.3 °F
N
0.0
Wind Variable Wind from North
Gusts 0.0 mph

Today
High -- | Low -- °F
--% Chance of Precip.
Yesterday
High -- | Low -- °F
Precip. -- in
6:26 AM 8:01 PM
Waxing Crescent, 11% visible
Pressure 30.06 in
Visibility 10.0 miles
Clouds Overcast 2400 ft
Dew Point 56 °F
Humidity 68%
Rainfall 0.00 in
Snow Depth 0 in , 0 in
UV 0 out of 12
Pollen 2.50 out of 12
PM2.5 Good
Flu Activity Not available.
METAR KCLM 290253Z AUTO 31009KT 10SM OVC024 16/13 A3006 RMK AO2 SLP177 T01610133 55004 $

More Conditions Fewer Conditions

Pressure 30.06 in
Visibility 10.0 miles
Clouds Overcast 2400 ft
Dew Point 56 °F
Humidity 68%
Rainfall 0.00 in
Snow Depth 0 in , 0 in
UV 0 out of 12
Pollen 2.50 out of 12
PM2.5 Good
Flu Activity Not available.
METAR KCLM 290253Z AUTO 31009KT 10SM OVC024 16/13 A3006 RMK AO2 SLP177 T01610133 55004 $

More Conditions Fewer Conditions

10-Day Weather Forecast

Almanac

Astronomy

Aug. 28, 2014 Rise Set
Actual Time 6:26 AM PDT 8:01 PM PDT
Civil Twilight 5:53 AM PDT 8:34 PM PDT
Nautical Twilight 5:13 AM PDT 9:13 PM PDT
Astronomical Twilight 4:30 AM PDT 9:56 PM PDT
Moon 9:40 AM PDT (8/28) 9:10 PM PDT (8/28)
Length of Visible Light 14h 40m
Length of Day
13h 35m
Tomorrow will be 3m 20s shorter.
Waxing Crescent, 11% of the Moon is Illuminated
Today
Waxing Crescent
Sep 2
First Quarter
Sep 8
Full
Sep 15
Last Quarter
Sep 24
New

Today's Extremes

State Highs State Lows

Community

WunderPhotos

Upload Photos

1,748,141 photos uploaded!

Nearby

Air Quality

  Air Quality AQ Index Pollutant
Yesterday Good
PM2.5
Current Good
PM2.5

Snow Depth

Station Depth Elevation
Dungeness 0 in 4100 ft
Mount Crag 0 in 4050 ft
Alpine Meadows 0 in 3500 ft
Olallie Meadows 3 in 3700 ft
Meadows Pass 0 in 3500 ft

Earthquake Activity

City Distance Mag. Time & Date
No recent earthquake activity has been reported nearby.
Minimum magnitude displayed is 2.5.

Coastal Water Temperatures

Place Temperature
Port Angeles, WA 54.0 °F
Friday Harbor, WA 53.1 °F
Port Townsend, WA 53.1 °F
La Push, WA 50.0 °F

Nearby Weather Stations